sensor_id;sensor_type;location;lat;lon;timestamp;P1;durP1;ratioP1;P2;durP2;ratioP2
77304;SDS011;66364;52.622;7.746;2023-05-18T00:00:32;6.45;;;4.20;;
77304;SDS011;66364;52.622;7.746;2023-05-18T00:05:02;8.00;;;4.20;;
77304;SDS011;66364;52.622;7.746;2023-05-18T00:07:04;6.55;;;4.20;;
77304;SDS011;66364;52.622;7.746;2023-05-18T00:09:05;4.97;;;3.75;;
77304;SDS011;66364;52.622;7.746;2023-05-18T00:11:07;5.53;;;4.00;;
77304;SDS011;66364;52.622;7.746;2023-05-18T00:13:09;8.63;;;4.20;;
77304;SDS011;66364;52.622;7.746;2023-05-18T00:15:10;13.33;;;4.50;;
77304;SDS011;66364;52.622;7.746;2023-05-18T00:17:11;4.97;;;3.25;;
77304;SDS011;66364;52.622;7.746;2023-05-18T00:19:12;6.03;;;3.80;;
77304;SDS011;66364;52.622;7.746;2023-05-18T00:21:14;7.95;;;3.98;;
77304;SDS011;66364;52.622;7.746;2023-05-18T00:23:15;5.05;;;3.50;;
77304;SDS011;66364;52.622;7.746;2023-05-18T00:25:17;6.65;;;3.60;;
77304;SDS011;66364;52.622;7.746;2023-05-18T00:27:17;7.20;;;3.73;;
77304;SDS011;66364;52.622;7.746;2023-05-18T00:29:19;8.75;;;4.35;;
77304;SDS011;66364;52.622;7.746;2023-05-18T00:31:20;5.10;;;2.77;;
77304;SDS011;66364;52.622;7.746;2023-05-18T00:33:21;6.03;;;3.92;;
77304;SDS011;66364;52.622;7.746;2023-05-18T00:35:22;6.03;;;3.55;;
77304;SDS011;66364;52.622;7.746;2023-05-18T00:37:23;7.27;;;4.27;;
77304;SDS011;66364;52.622;7.746;2023-05-18T00:39:24;6.90;;;3.80;;
77304;SDS011;66364;52.622;7.746;2023-05-18T00:41:26;6.15;;;4.17;;
77304;SDS011;66364;52.622;7.746;2023-05-18T00:43:27;5.80;;;4.20;;
77304;SDS011;66364;52.622;7.746;2023-05-18T00:45:29;6.40;;;4.10;;
77304;SDS011;66364;52.622;7.746;2023-05-18T00:47:31;6.40;;;3.87;;
77304;SDS011;66364;52.622;7.746;2023-05-18T00:49:32;6.20;;;3.33;;
77304;SDS011;66364;52.622;7.746;2023-05-18T00:51:33;8.03;;;4.50;;
77304;SDS011;66364;52.622;7.746;2023-05-18T00:53:34;10.48;;;4.20;;
77304;SDS011;66364;52.622;7.746;2023-05-18T00:55:36;5.65;;;3.98;;
77304;SDS011;66364;52.622;7.746;2023-05-18T00:57:37;4.10;;;3.30;;
77304;SDS011;66364;52.622;7.746;2023-05-18T00:59:39;12.58;;;3.87;;
77304;SDS011;66364;52.622;7.746;2023-05-18T01:01:40;7.22;;;4.00;;
77304;SDS011;66364;52.622;7.746;2023-05-18T01:03:42;6.15;;;3.25;;
77304;SDS011;66364;52.622;7.746;2023-05-18T01:05:43;5.03;;;4.00;;
77304;SDS011;66364;52.622;7.746;2023-05-18T01:07:44;6.97;;;3.77;;
77304;SDS011;66364;52.622;7.746;2023-05-18T01:09:55;5.45;;;3.60;;
77304;SDS011;66364;52.622;7.746;2023-05-18T01:12:05;4.97;;;3.30;;
77304;SDS011;66364;52.622;7.746;2023-05-18T01:22:02;6.12;;;3.37;;
77304;SDS011;66364;52.622;7.746;2023-05-18T01:26:42;3.70;;;3.37;;
77304;SDS011;66364;52.622;7.746;2023-05-18T01:28:45;4.10;;;3.60;;
77304;SDS011;66364;52.622;7.746;2023-05-18T01:30:48;8.85;;;3.77;;
77304;SDS011;66364;52.622;7.746;2023-05-18T01:32:50;5.08;;;3.45;;
77304;SDS011;66364;52.622;7.746;2023-05-18T01:34:51;8.73;;;3.58;;
77304;SDS011;66364;52.622;7.746;2023-05-18T01:36:52;6.58;;;2.90;;
77304;SDS011;66364;52.622;7.746;2023-05-18T01:38:54;8.48;;;3.25;;
77304;SDS011;66364;52.622;7.746;2023-05-18T01:43:34;6.47;;;3.25;;
77304;SDS011;66364;52.622;7.746;2023-05-18T01:45:38;7.72;;;4.05;;
77304;SDS011;66364;52.622;7.746;2023-05-18T01:47:41;7.42;;;4.40;;
77304;SDS011;66364;52.622;7.746;2023-05-18T01:49:58;6.45;;;3.58;;
77304;SDS011;66364;52.622;7.746;2023-05-18T01:52:17;5.22;;;3.30;;
77304;SDS011;66364;52.622;7.746;2023-05-18T01:54:20;5.92;;;5.33;;
77304;SDS011;66364;52.622;7.746;2023-05-18T01:56:22;10.53;;;3.87;;
77304;SDS011;66364;52.622;7.746;2023-05-18T01:58:24;7.17;;;3.17;;
77304;SDS011;66364;52.622;7.746;2023-05-18T02:00:26;5.30;;;3.90;;
77304;SDS011;66364;52.622;7.746;2023-05-18T02:02:27;3.70;;;3.35;;
77304;SDS011;66364;52.622;7.746;2023-05-18T02:04:28;7.12;;;4.12;;
77304;SDS011;66364;52.622;7.746;2023-05-18T02:06:30;5.10;;;2.92;;
77304;SDS011;66364;52.622;7.746;2023-05-18T02:08:30;4.97;;;3.57;;
77304;SDS011;66364;52.622;7.746;2023-05-18T02:10:31;7.33;;;3.90;;
77304;SDS011;66364;52.622;7.746;2023-05-18T02:12:33;4.10;;;3.40;;
77304;SDS011;66364;52.622;7.746;2023-05-18T02:14:34;3.15;;;2.85;;
77304;SDS011;66364;52.622;7.746;2023-05-18T02:16:35;3.90;;;3.25;;
77304;SDS011;66364;52.622;7.746;2023-05-18T02:18:36;4.53;;;2.87;;
77304;SDS011;66364;52.622;7.746;2023-05-18T02:20:37;3.83;;;3.47;;
77304;SDS011;66364;52.622;7.746;2023-05-18T02:22:37;7.97;;;3.90;;
77304;SDS011;66364;52.622;7.746;2023-05-18T02:24:39;9.78;;;4.03;;
77304;SDS011;66364;52.622;7.746;2023-05-18T02:26:40;4.40;;;2.73;;
77304;SDS011;66364;52.622;7.746;2023-05-18T02:28:41;5.87;;;2.97;;
77304;SDS011;66364;52.622;7.746;2023-05-18T02:30:42;7.95;;;3.17;;
77304;SDS011;66364;52.622;7.746;2023-05-18T02:32:43;5.87;;;3.70;;
77304;SDS011;66364;52.622;7.746;2023-05-18T02:34:44;6.63;;;3.87;;
77304;SDS011;66364;52.622;7.746;2023-05-18T02:36:45;5.55;;;3.92;;
77304;SDS011;66364;52.622;7.746;2023-05-18T02:38:46;4.10;;;3.27;;
77304;SDS011;66364;52.622;7.746;2023-05-18T02:40:47;3.75;;;3.45;;
77304;SDS011;66364;52.622;7.746;2023-05-18T02:42:48;7.05;;;3.10;;
77304;SDS011;66364;52.622;7.746;2023-05-18T02:44:50;7.72;;;4.92;;
77304;SDS011;66364;52.622;7.746;2023-05-18T02:46:51;4.43;;;3.10;;
77304;SDS011;66364;52.622;7.746;2023-05-18T02:50:56;3.90;;;3.60;;
77304;SDS011;66364;52.622;7.746;2023-05-18T02:52:58;4.70;;;3.10;;
77304;SDS011;66364;52.622;7.746;2023-05-18T02:54:59;5.27;;;3.73;;
77304;SDS011;66364;52.622;7.746;2023-05-18T02:57:00;4.95;;;3.35;;
77304;SDS011;66364;52.622;7.746;2023-05-18T02:59:00;6.73;;;3.50;;
77304;SDS011;66364;52.622;7.746;2023-05-18T03:01:02;3.75;;;3.30;;
77304;SDS011;66364;52.622;7.746;2023-05-18T03:03:04;12.50;;;4.10;;
77304;SDS011;66364;52.622;7.746;2023-05-18T03:05:05;5.10;;;3.70;;
77304;SDS011;66364;52.622;7.746;2023-05-18T03:07:07;5.15;;;3.77;;
77304;SDS011;66364;52.622;7.746;2023-05-18T03:09:08;4.53;;;3.08;;
77304;SDS011;66364;52.622;7.746;2023-05-18T03:11:09;7.37;;;3.30;;
77304;SDS011;66364;52.622;7.746;2023-05-18T03:13:10;5.78;;;3.22;;
77304;SDS011;66364;52.622;7.746;2023-05-18T03:15:11;7.23;;;3.60;;
77304;SDS011;66364;52.622;7.746;2023-05-18T03:17:12;5.35;;;3.45;;
77304;SDS011;66364;52.622;7.746;2023-05-18T03:19:13;6.17;;;3.77;;
77304;SDS011;66364;52.622;7.746;2023-05-18T03:21:14;3.85;;;2.85;;
77304;SDS011;66364;52.622;7.746;2023-05-18T03:23:15;3.77;;;3.10;;
77304;SDS011;66364;52.622;7.746;2023-05-18T03:25:17;7.17;;;3.00;;
77304;SDS011;66364;52.622;7.746;2023-05-18T03:27:17;5.43;;;3.10;;
77304;SDS011;66364;52.622;7.746;2023-05-18T03:31:26;6.17;;;4.40;;
77304;SDS011;66364;52.622;7.746;2023-05-18T03:33:28;5.60;;;3.40;;
77304;SDS011;66364;52.622;7.746;2023-05-18T03:35:29;7.72;;;4.03;;
77304;SDS011;66364;52.622;7.746;2023-05-18T03:37:31;4.75;;;3.20;;
77304;SDS011;66364;52.622;7.746;2023-05-18T03:39:32;7.47;;;4.43;;
77304;SDS011;66364;52.622;7.746;2023-05-18T03:41:33;8.87;;;5.70;;
77304;SDS011;66364;52.622;7.746;2023-05-18T03:43:35;5.17;;;3.55;;
77304;SDS011;66364;52.622;7.746;2023-05-18T03:45:36;6.08;;;3.25;;
77304;SDS011;66364;52.622;7.746;2023-05-18T03:47:37;4.57;;;4.10;;
77304;SDS011;66364;52.622;7.746;2023-05-18T03:49:39;4.95;;;3.72;;
77304;SDS011;66364;52.622;7.746;2023-05-18T03:51:40;6.65;;;3.92;;
77304;SDS011;66364;52.622;7.746;2023-05-18T03:53:41;5.57;;;3.50;;
77304;SDS011;66364;52.622;7.746;2023-05-18T03:55:42;5.15;;;4.42;;
77304;SDS011;66364;52.622;7.746;2023-05-18T03:57:43;6.67;;;3.63;;
77304;SDS011;66364;52.622;7.746;2023-05-18T03:59:43;3.83;;;3.30;;
77304;SDS011;66364;52.622;7.746;2023-05-18T04:01:45;3.55;;;3.25;;
77304;SDS011;66364;52.622;7.746;2023-05-18T04:03:48;8.73;;;4.12;;
77304;SDS011;66364;52.622;7.746;2023-05-18T04:05:49;4.30;;;3.90;;
77304;SDS011;66364;52.622;7.746;2023-05-18T04:07:51;7.65;;;4.65;;
77304;SDS011;66364;52.622;7.746;2023-05-18T04:09:53;5.12;;;3.50;;
77304;SDS011;66364;52.622;7.746;2023-05-18T04:11:57;4.35;;;3.65;;
77304;SDS011;66364;52.622;7.746;2023-05-18T04:13:58;4.75;;;3.87;;
77304;SDS011;66364;52.622;7.746;2023-05-18T04:15:59;6.55;;;3.42;;
77304;SDS011;66364;52.622;7.746;2023-05-18T04:18:00;8.43;;;5.60;;
77304;SDS011;66364;52.622;7.746;2023-05-18T04:20:02;7.25;;;5.25;;
77304;SDS011;66364;52.622;7.746;2023-05-18T04:22:04;5.53;;;4.40;;
77304;SDS011;66364;52.622;7.746;2023-05-18T04:24:07;6.95;;;4.35;;
77304;SDS011;66364;52.622;7.746;2023-05-18T04:26:09;6.55;;;5.15;;
77304;SDS011;66364;52.622;7.746;2023-05-18T04:28:10;5.65;;;3.92;;
77304;SDS011;66364;52.622;7.746;2023-05-18T04:30:11;4.60;;;4.13;;
77304;SDS011;66364;52.622;7.746;2023-05-18T04:32:13;6.95;;;4.10;;
77304;SDS011;66364;52.622;7.746;2023-05-18T04:34:14;6.50;;;4.23;;
77304;SDS011;66364;52.622;7.746;2023-05-18T04:36:15;6.40;;;4.13;;
77304;SDS011;66364;52.622;7.746;2023-05-18T04:38:16;6.05;;;5.25;;
77304;SDS011;66364;52.622;7.746;2023-05-18T04:40:17;5.78;;;3.92;;
77304;SDS011;66364;52.622;7.746;2023-05-18T04:42:18;6.75;;;4.20;;
77304;SDS011;66364;52.622;7.746;2023-05-18T04:44:19;6.90;;;5.20;;
77304;SDS011;66364;52.622;7.746;2023-05-18T04:46:20;13.10;;;5.55;;
77304;SDS011;66364;52.622;7.746;2023-05-18T04:48:21;11.53;;;5.03;;
77304;SDS011;66364;52.622;7.746;2023-05-18T04:50:24;8.75;;;5.17;;
77304;SDS011;66364;52.622;7.746;2023-05-18T04:52:25;9.93;;;4.60;;
77304;SDS011;66364;52.622;7.746;2023-05-18T04:54:27;8.60;;;6.28;;
77304;SDS011;66364;52.622;7.746;2023-05-18T04:56:29;7.45;;;5.30;;
77304;SDS011;66364;52.622;7.746;2023-05-18T04:58:32;10.83;;;5.23;;
77304;SDS011;66364;52.622;7.746;2023-05-18T05:00:33;6.25;;;4.70;;
77304;SDS011;66364;52.622;7.746;2023-05-18T05:02:34;10.68;;;5.55;;
77304;SDS011;66364;52.622;7.746;2023-05-18T05:04:36;7.00;;;5.35;;
77304;SDS011;66364;52.622;7.746;2023-05-18T05:06:37;8.88;;;5.05;;
77304;SDS011;66364;52.622;7.746;2023-05-18T05:08:38;10.93;;;5.47;;
77304;SDS011;66364;52.622;7.746;2023-05-18T05:10:42;7.23;;;6.10;;
77304;SDS011;66364;52.622;7.746;2023-05-18T05:12:43;7.60;;;5.50;;
77304;SDS011;66364;52.622;7.746;2023-05-18T05:14:44;6.22;;;5.62;;
77304;SDS011;66364;52.622;7.746;2023-05-18T05:16:46;9.40;;;5.53;;
77304;SDS011;66364;52.622;7.746;2023-05-18T05:18:47;9.53;;;5.22;;
77304;SDS011;66364;52.622;7.746;2023-05-18T05:20:49;9.98;;;5.40;;
77304;SDS011;66364;52.622;7.746;2023-05-18T05:22:50;7.10;;;6.17;;
77304;SDS011;66364;52.622;7.746;2023-05-18T05:24:50;12.80;;;5.80;;
77304;SDS011;66364;52.622;7.746;2023-05-18T05:26:52;6.33;;;5.45;;
77304;SDS011;66364;52.622;7.746;2023-05-18T05:28:53;9.68;;;5.60;;
77304;SDS011;66364;52.622;7.746;2023-05-18T05:30:54;7.00;;;6.15;;
77304;SDS011;66364;52.622;7.746;2023-05-18T05:32:56;6.30;;;5.42;;
77304;SDS011;66364;52.622;7.746;2023-05-18T05:34:57;8.55;;;5.62;;
77304;SDS011;66364;52.622;7.746;2023-05-18T05:36:58;5.78;;;4.72;;
77304;SDS011;66364;52.622;7.746;2023-05-18T05:38:59;9.17;;;5.43;;
77304;SDS011;66364;52.622;7.746;2023-05-18T05:41:00;13.40;;;4.92;;
77304;SDS011;66364;52.622;7.746;2023-05-18T05:43:03;6.28;;;5.40;;
77304;SDS011;66364;52.622;7.746;2023-05-18T05:45:06;6.05;;;5.50;;
77304;SDS011;66364;52.622;7.746;2023-05-18T05:47:08;9.95;;;4.92;;
77304;SDS011;66364;52.622;7.746;2023-05-18T05:51:28;9.15;;;6.05;;
77304;SDS011;66364;52.622;7.746;2023-05-18T05:53:35;8.10;;;5.62;;
77304;SDS011;66364;52.622;7.746;2023-05-18T05:55:43;13.32;;;6.33;;
77304;SDS011;66364;52.622;7.746;2023-05-18T05:59:53;7.60;;;5.87;;
77304;SDS011;66364;52.622;7.746;2023-05-18T06:01:55;9.43;;;4.78;;
77304;SDS011;66364;52.622;7.746;2023-05-18T06:03:57;9.05;;;4.80;;
77304;SDS011;66364;52.622;7.746;2023-05-18T06:06:00;9.15;;;4.40;;
77304;SDS011;66364;52.622;7.746;2023-05-18T06:08:03;5.95;;;4.95;;
77304;SDS011;66364;52.622;7.746;2023-05-18T06:10:06;11.48;;;5.17;;
77304;SDS011;66364;52.622;7.746;2023-05-18T06:12:09;7.30;;;4.72;;
77304;SDS011;66364;52.622;7.746;2023-05-18T06:14:10;6.62;;;5.15;;
77304;SDS011;66364;52.622;7.746;2023-05-18T06:16:13;8.10;;;4.78;;
77304;SDS011;66364;52.622;7.746;2023-05-18T06:18:15;7.33;;;4.90;;
77304;SDS011;66364;52.622;7.746;2023-05-18T06:20:17;6.58;;;4.55;;
77304;SDS011;66364;52.622;7.746;2023-05-18T06:22:19;6.53;;;5.15;;
77304;SDS011;66364;52.622;7.746;2023-05-18T06:24:22;5.60;;;4.65;;
77304;SDS011;66364;52.622;7.746;2023-05-18T06:26:24;8.03;;;4.22;;
77304;SDS011;66364;52.622;7.746;2023-05-18T06:28:27;8.03;;;4.60;;
77304;SDS011;66364;52.622;7.746;2023-05-18T06:30:29;7.80;;;5.25;;
77304;SDS011;66364;52.622;7.746;2023-05-18T06:32:32;6.45;;;5.25;;
77304;SDS011;66364;52.622;7.746;2023-05-18T06:34:34;8.45;;;5.87;;
77304;SDS011;66364;52.622;7.746;2023-05-18T06:36:36;9.63;;;5.87;;
77304;SDS011;66364;52.622;7.746;2023-05-18T06:38:39;8.98;;;5.33;;
77304;SDS011;66364;52.622;7.746;2023-05-18T06:40:42;8.88;;;4.80;;
77304;SDS011;66364;52.622;7.746;2023-05-18T06:42:45;11.25;;;6.10;;
77304;SDS011;66364;52.622;7.746;2023-05-18T06:44:48;5.95;;;5.45;;
77304;SDS011;66364;52.622;7.746;2023-05-18T06:46:50;9.95;;;5.78;;
77304;SDS011;66364;52.622;7.746;2023-05-18T06:48:52;8.28;;;5.65;;
77304;SDS011;66364;52.622;7.746;2023-05-18T06:50:55;6.62;;;5.67;;
77304;SDS011;66364;52.622;7.746;2023-05-18T06:52:56;13.47;;;5.60;;
77304;SDS011;66364;52.622;7.746;2023-05-18T06:54:57;9.83;;;4.50;;
77304;SDS011;66364;52.622;7.746;2023-05-18T06:56:58;10.72;;;5.65;;
77304;SDS011;66364;52.622;7.746;2023-05-18T06:59:01;11.40;;;5.70;;
77304;SDS011;66364;52.622;7.746;2023-05-18T07:01:01;7.72;;;6.17;;
77304;SDS011;66364;52.622;7.746;2023-05-18T07:03:02;8.10;;;5.37;;
77304;SDS011;66364;52.622;7.746;2023-05-18T07:05:04;17.20;;;6.28;;
77304;SDS011;66364;52.622;7.746;2023-05-18T07:07:06;5.83;;;5.22;;
77304;SDS011;66364;52.622;7.746;2023-05-18T07:09:06;6.30;;;5.70;;
77304;SDS011;66364;52.622;7.746;2023-05-18T07:11:08;6.25;;;5.37;;
77304;SDS011;66364;52.622;7.746;2023-05-18T07:13:09;6.30;;;5.33;;
77304;SDS011;66364;52.622;7.746;2023-05-18T07:15:10;9.40;;;6.08;;
77304;SDS011;66364;52.622;7.746;2023-05-18T07:17:11;7.80;;;5.65;;
77304;SDS011;66364;52.622;7.746;2023-05-18T07:21:18;11.18;;;5.72;;
77304;SDS011;66364;52.622;7.746;2023-05-18T07:23:19;10.20;;;5.00;;
77304;SDS011;66364;52.622;7.746;2023-05-18T07:25:20;7.23;;;4.80;;
77304;SDS011;66364;52.622;7.746;2023-05-18T07:27:28;7.15;;;5.58;;
77304;SDS011;66364;52.622;7.746;2023-05-18T07:29:29;8.25;;;5.78;;
77304;SDS011;66364;52.622;7.746;2023-05-18T07:31:30;8.85;;;5.15;;
77304;SDS011;66364;52.622;7.746;2023-05-18T07:33:31;11.67;;;6.00;;
77304;SDS011;66364;52.622;7.746;2023-05-18T07:35:33;8.65;;;4.55;;
77304;SDS011;66364;52.622;7.746;2023-05-18T07:37:34;8.90;;;4.30;;
77304;SDS011;66364;52.622;7.746;2023-05-18T07:39:34;8.60;;;4.23;;
77304;SDS011;66364;52.622;7.746;2023-05-18T07:41:36;7.65;;;4.15;;
77304;SDS011;66364;52.622;7.746;2023-05-18T07:43:37;8.58;;;4.50;;
77304;SDS011;66364;52.622;7.746;2023-05-18T07:45:38;8.37;;;4.37;;
77304;SDS011;66364;52.622;7.746;2023-05-18T07:47:39;9.88;;;4.40;;
77304;SDS011;66364;52.622;7.746;2023-05-18T07:49:40;9.30;;;5.47;;
77304;SDS011;66364;52.622;7.746;2023-05-18T07:51:41;7.60;;;4.47;;
77304;SDS011;66364;52.622;7.746;2023-05-18T07:53:42;12.30;;;4.80;;
77304;SDS011;66364;52.622;7.746;2023-05-18T07:55:42;8.40;;;5.70;;
77304;SDS011;66364;52.622;7.746;2023-05-18T07:57:43;9.83;;;4.90;;
77304;SDS011;66364;52.622;7.746;2023-05-18T07:59:44;8.65;;;4.70;;
77304;SDS011;66364;52.622;7.746;2023-05-18T08:01:45;5.60;;;4.53;;
77304;SDS011;66364;52.622;7.746;2023-05-18T08:03:46;6.65;;;4.70;;
77304;SDS011;66364;52.622;7.746;2023-05-18T08:05:48;5.15;;;4.62;;
77304;SDS011;66364;52.622;7.746;2023-05-18T08:07:49;8.53;;;5.45;;
77304;SDS011;66364;52.622;7.746;2023-05-18T08:09:50;5.93;;;5.03;;
77304;SDS011;66364;52.622;7.746;2023-05-18T08:11:52;5.60;;;4.08;;
77304;SDS011;66364;52.622;7.746;2023-05-18T08:13:53;8.33;;;5.60;;
77304;SDS011;66364;52.622;7.746;2023-05-18T08:15:53;7.40;;;4.70;;
77304;SDS011;66364;52.622;7.746;2023-05-18T08:17:54;6.03;;;5.43;;
77304;SDS011;66364;52.622;7.746;2023-05-18T08:19:56;5.90;;;4.60;;
77304;SDS011;66364;52.622;7.746;2023-05-18T08:21:56;4.43;;;4.03;;
77304;SDS011;66364;52.622;7.746;2023-05-18T08:23:57;5.33;;;4.13;;
77304;SDS011;66364;52.622;7.746;2023-05-18T08:25:58;8.03;;;4.60;;
77304;SDS011;66364;52.622;7.746;2023-05-18T08:28:00;4.70;;;4.30;;
77304;SDS011;66364;52.622;7.746;2023-05-18T08:30:02;4.25;;;3.95;;
77304;SDS011;66364;52.622;7.746;2023-05-18T08:32:06;8.00;;;5.35;;
77304;SDS011;66364;52.622;7.746;2023-05-18T08:34:07;9.43;;;4.40;;
77304;SDS011;66364;52.622;7.746;2023-05-18T08:36:08;9.17;;;4.80;;
77304;SDS011;66364;52.622;7.746;2023-05-18T08:38:10;8.70;;;4.92;;
77304;SDS011;66364;52.622;7.746;2023-05-18T08:40:11;6.90;;;4.30;;
77304;SDS011;66364;52.622;7.746;2023-05-18T08:44:25;9.58;;;5.28;;
77304;SDS011;66364;52.622;7.746;2023-05-18T08:46:33;6.08;;;4.50;;
77304;SDS011;66364;52.622;7.746;2023-05-18T08:48:39;6.45;;;4.20;;
77304;SDS011;66364;52.622;7.746;2023-05-18T08:50:43;8.88;;;5.25;;
77304;SDS011;66364;52.622;7.746;2023-05-18T08:52:46;6.78;;;4.37;;
77304;SDS011;66364;52.622;7.746;2023-05-18T08:54:51;6.05;;;3.95;;
77304;SDS011;66364;52.622;7.746;2023-05-18T08:56:54;11.90;;;4.83;;
77304;SDS011;66364;52.622;7.746;2023-05-18T08:58:58;5.50;;;4.20;;
77304;SDS011;66364;52.622;7.746;2023-05-18T09:01:01;6.75;;;4.40;;
77304;SDS011;66364;52.622;7.746;2023-05-18T09:03:04;5.67;;;5.00;;
77304;SDS011;66364;52.622;7.746;2023-05-18T09:05:06;7.17;;;4.65;;
77304;SDS011;66364;52.622;7.746;2023-05-18T09:07:10;4.58;;;4.05;;
77304;SDS011;66364;52.622;7.746;2023-05-18T09:09:10;7.22;;;5.28;;
77304;SDS011;66364;52.622;7.746;2023-05-18T09:11:13;10.10;;;4.72;;
77304;SDS011;66364;52.622;7.746;2023-05-18T09:13:15;6.20;;;4.80;;
77304;SDS011;66364;52.622;7.746;2023-05-18T09:15:23;5.45;;;4.65;;
77304;SDS011;66364;52.622;7.746;2023-05-18T09:17:24;6.45;;;5.10;;
77304;SDS011;66364;52.622;7.746;2023-05-18T09:19:26;4.75;;;4.33;;
77304;SDS011;66364;52.622;7.746;2023-05-18T09:21:29;8.50;;;5.85;;
77304;SDS011;66364;52.622;7.746;2023-05-18T09:23:31;6.40;;;4.65;;
77304;SDS011;66364;52.622;7.746;2023-05-18T09:25:33;6.20;;;5.58;;
77304;SDS011;66364;52.622;7.746;2023-05-18T09:27:38;11.48;;;5.80;;
77304;SDS011;66364;52.622;7.746;2023-05-18T09:29:51;9.85;;;5.05;;
77304;SDS011;66364;52.622;7.746;2023-05-18T09:31:53;7.12;;;4.87;;
77304;SDS011;66364;52.622;7.746;2023-05-18T09:33:54;12.07;;;5.70;;
77304;SDS011;66364;52.622;7.746;2023-05-18T09:35:58;9.03;;;5.58;;
77304;SDS011;66364;52.622;7.746;2023-05-18T09:38:02;9.83;;;6.03;;
77304;SDS011;66364;52.622;7.746;2023-05-18T09:40:05;6.30;;;4.78;;
77304;SDS011;66364;52.622;7.746;2023-05-18T09:42:06;8.95;;;8.05;;
77304;SDS011;66364;52.622;7.746;2023-05-18T09:44:08;8.65;;;6.35;;
77304;SDS011;66364;52.622;7.746;2023-05-18T09:46:10;10.23;;;6.97;;
77304;SDS011;66364;52.622;7.746;2023-05-18T09:48:12;8.45;;;5.95;;
77304;SDS011;66364;52.622;7.746;2023-05-18T09:50:16;10.03;;;5.95;;
77304;SDS011;66364;52.622;7.746;2023-05-18T09:52:44;8.93;;;6.55;;
77304;SDS011;66364;52.622;7.746;2023-05-18T09:54:43;7.55;;;5.50;;
77304;SDS011;66364;52.622;7.746;2023-05-18T09:56:48;6.70;;;5.70;;
77304;SDS011;66364;52.622;7.746;2023-05-18T09:58:50;8.60;;;6.67;;
77304;SDS011;66364;52.622;7.746;2023-05-18T10:00:52;8.73;;;6.62;;
77304;SDS011;66364;52.622;7.746;2023-05-18T10:02:53;7.37;;;6.67;;
77304;SDS011;66364;52.622;7.746;2023-05-18T10:04:54;8.45;;;5.30;;
77304;SDS011;66364;52.622;7.746;2023-05-18T10:06:55;7.50;;;6.30;;
77304;SDS011;66364;52.622;7.746;2023-05-18T10:08:56;8.67;;;5.63;;
77304;SDS011;66364;52.622;7.746;2023-05-18T10:10:58;10.28;;;6.40;;
77304;SDS011;66364;52.622;7.746;2023-05-18T10:13:00;9.58;;;6.10;;
77304;SDS011;66364;52.622;7.746;2023-05-18T10:15:01;14.13;;;7.17;;
77304;SDS011;66364;52.622;7.746;2023-05-18T10:17:03;10.78;;;6.70;;
77304;SDS011;66364;52.622;7.746;2023-05-18T10:21:37;9.13;;;7.22;;
77304;SDS011;66364;52.622;7.746;2023-05-18T10:23:39;8.78;;;6.97;;
77304;SDS011;66364;52.622;7.746;2023-05-18T10:25:41;9.03;;;5.85;;
77304;SDS011;66364;52.622;7.746;2023-05-18T10:27:43;10.35;;;5.72;;
77304;SDS011;66364;52.622;7.746;2023-05-18T10:29:46;9.75;;;6.80;;
77304;SDS011;66364;52.622;7.746;2023-05-18T10:31:48;6.83;;;6.33;;
77304;SDS011;66364;52.622;7.746;2023-05-18T10:33:52;7.97;;;7.17;;
77304;SDS011;66364;52.622;7.746;2023-05-18T10:35:55;8.23;;;6.47;;
77304;SDS011;66364;52.622;7.746;2023-05-18T10:37:57;7.70;;;6.92;;
77304;SDS011;66364;52.622;7.746;2023-05-18T10:39:59;8.75;;;7.33;;
77304;SDS011;66364;52.622;7.746;2023-05-18T10:42:10;7.92;;;7.12;;
77304;SDS011;66364;52.622;7.746;2023-05-18T10:44:12;11.93;;;7.67;;
77304;SDS011;66364;52.622;7.746;2023-05-18T10:46:15;10.08;;;7.62;;
77304;SDS011;66364;52.622;7.746;2023-05-18T10:48:23;8.30;;;6.40;;
77304;SDS011;66364;52.622;7.746;2023-05-18T10:50:25;7.97;;;7.28;;
77304;SDS011;66364;52.622;7.746;2023-05-18T10:52:38;9.70;;;7.78;;
77304;SDS011;66364;52.622;7.746;2023-05-18T10:54:37;9.60;;;6.85;;
77304;SDS011;66364;52.622;7.746;2023-05-18T10:56:43;9.45;;;8.15;;
77304;SDS011;66364;52.622;7.746;2023-05-18T10:58:46;10.63;;;8.48;;
77304;SDS011;66364;52.622;7.746;2023-05-18T11:00:48;9.38;;;7.22;;
77304;SDS011;66364;52.622;7.746;2023-05-18T11:02:53;9.00;;;8.25;;
77304;SDS011;66364;52.622;7.746;2023-05-18T11:04:54;9.58;;;7.45;;
77304;SDS011;66364;52.622;7.746;2023-05-18T11:06:57;14.13;;;10.10;;
77304;SDS011;66364;52.622;7.746;2023-05-18T11:09:02;10.38;;;9.53;;
77304;SDS011;66364;52.622;7.746;2023-05-18T11:11:03;13.15;;;7.50;;
77304;SDS011;66364;52.622;7.746;2023-05-18T11:13:06;8.73;;;8.03;;
77304;SDS011;66364;52.622;7.746;2023-05-18T11:15:07;10.40;;;8.68;;
77304;SDS011;66364;52.622;7.746;2023-05-18T11:17:19;10.15;;;9.00;;
77304;SDS011;66364;52.622;7.746;2023-05-18T11:19:26;10.65;;;9.65;;
77304;SDS011;66364;52.622;7.746;2023-05-18T11:23:40;10.45;;;8.45;;
77304;SDS011;66364;52.622;7.746;2023-05-18T11:25:41;10.70;;;9.70;;
77304;SDS011;66364;52.622;7.746;2023-05-18T11:27:43;8.80;;;8.10;;
77304;SDS011;66364;52.622;7.746;2023-05-18T11:29:44;10.50;;;9.50;;
77304;SDS011;66364;52.622;7.746;2023-05-18T11:32:00;11.08;;;8.85;;
77304;SDS011;66364;52.622;7.746;2023-05-18T11:34:12;10.00;;;9.10;;
77304;SDS011;66364;52.622;7.746;2023-05-18T11:36:21;11.25;;;9.85;;
77304;SDS011;66364;52.622;7.746;2023-05-18T11:38:26;10.50;;;9.40;;
77304;SDS011;66364;52.622;7.746;2023-05-18T11:40:44;11.78;;;10.68;;
77304;SDS011;66364;52.622;7.746;2023-05-18T11:42:51;10.05;;;8.93;;
77304;SDS011;66364;52.622;7.746;2023-05-18T11:44:51;11.22;;;9.50;;
77304;SDS011;66364;52.622;7.746;2023-05-18T11:49:06;11.65;;;9.18;;
77304;SDS011;66364;52.622;7.746;2023-05-18T11:51:07;10.35;;;9.30;;
77304;SDS011;66364;52.622;7.746;2023-05-18T11:53:08;11.22;;;10.03;;
77304;SDS011;66364;52.622;7.746;2023-05-18T11:55:13;10.23;;;9.23;;
77304;SDS011;66364;52.622;7.746;2023-05-18T11:57:16;11.83;;;9.13;;
77304;SDS011;66364;52.622;7.746;2023-05-18T11:59:29;10.48;;;9.35;;
77304;SDS011;66364;52.622;7.746;2023-05-18T12:01:31;12.47;;;9.13;;
77304;SDS011;66364;52.622;7.746;2023-05-18T12:03:34;10.72;;;9.75;;
77304;SDS011;66364;52.622;7.746;2023-05-18T12:05:35;10.65;;;9.58;;
77304;SDS011;66364;52.622;7.746;2023-05-18T12:07:37;10.75;;;9.43;;
77304;SDS011;66364;52.622;7.746;2023-05-18T12:09:47;9.68;;;8.73;;
77304;SDS011;66364;52.622;7.746;2023-05-18T12:11:49;9.65;;;7.72;;
77304;SDS011;66364;52.622;7.746;2023-05-18T12:13:51;9.78;;;8.85;;
77304;SDS011;66364;52.622;7.746;2023-05-18T12:15:54;8.98;;;8.10;;
77304;SDS011;66364;52.622;7.746;2023-05-18T12:17:57;10.40;;;9.03;;
77304;SDS011;66364;52.622;7.746;2023-05-18T12:19:58;9.88;;;8.30;;
77304;SDS011;66364;52.622;7.746;2023-05-18T12:21:59;12.75;;;8.58;;
77304;SDS011;66364;52.622;7.746;2023-05-18T12:24:01;11.35;;;8.13;;
77304;SDS011;66364;52.622;7.746;2023-05-18T12:26:03;10.72;;;7.00;;
77304;SDS011;66364;52.622;7.746;2023-05-18T12:28:04;12.25;;;9.95;;
77304;SDS011;66364;52.622;7.746;2023-05-18T12:30:10;10.77;;;7.00;;
77304;SDS011;66364;52.622;7.746;2023-05-18T12:32:11;8.30;;;7.50;;
77304;SDS011;66364;52.622;7.746;2023-05-18T12:34:13;8.78;;;7.87;;
77304;SDS011;66364;52.622;7.746;2023-05-18T12:36:14;8.58;;;7.78;;
77304;SDS011;66364;52.622;7.746;2023-05-18T12:38:16;9.70;;;8.80;;
77304;SDS011;66364;52.622;7.746;2023-05-18T12:40:18;8.83;;;7.58;;
77304;SDS011;66364;52.622;7.746;2023-05-18T12:42:19;12.03;;;7.83;;
77304;SDS011;66364;52.622;7.746;2023-05-18T12:44:21;8.43;;;7.70;;
77304;SDS011;66364;52.622;7.746;2023-05-18T12:46:22;9.57;;;7.80;;
77304;SDS011;66364;52.622;7.746;2023-05-18T12:48:24;8.68;;;6.90;;
77304;SDS011;66364;52.622;7.746;2023-05-18T12:50:24;7.30;;;6.63;;